LNG Imo — ZCDT6 — position and weather

sailwx.info

Track history (hours):
 
Tides and Currents Weather Stations Pressure Air Temp Water Temp Dewpoint Dewpoint Depression Visibility Wind Speed Wind Dir Waves Ship Positions

LNG Imo

Last reported at 2015-Jul-13 22:13 UTC. Time now 2015-Jul-31 07:24 UTC.
Position N 26°56' W 015°43'.
Warning: this ship's position is 17 days out of date.

; draft 10 m.

Type: Ship (hazmat cat D). MMSI: 310565000.

Date/timePositionNaut miles runAvg speedWind from/ knotsBaromVisibWave heightAir tempDewpointWater temp
2015-Jul-13 22:13N 26°56' W 015°43'811.5
2015-Jul-13 21:33N 27°03' W 015°40'2311.5
2015-Jul-13 19:33N 27°24' W 015°28'1511.2
2015-Jul-13 18:13N 27°37' W 015°21'711.4
2015-Jul-13 17:33N 27°44' W 015°17'1110.6
2015-Jul-13 16:33N 27°54' W 015°13'10 9.7
2015-Jul-13 15:33N 28°03' W 015°17'6 5.7
2015-Jul-13 14:33N 28°07' W 015°21'6 5.7
2015-Jul-13 13:33N 28°11' W 015°17'7 7.5
2015-Jul-13 12:33N 28°17' W 015°11'10 9.8
2015-Jul-13 11:33N 28°24' W 015°04'7010.0
2015-Jul-13 04:33N 29°15' W 014°08'1010.2
2015-Jul-13 03:33N 29°22' W 014°00'3210.3
2015-Jul-13 00:24N 29°45' W 013°34'910.1
2015-Jul-12 23:28N 29°52' W 013°26'910.0
2015-Jul-12 22:32N 29°59' W 013°18'1110.1
2015-Jul-12 21:29N 30°06' W 013°10'910.0
2015-Jul-12 20:33N 30°13' W 013°02'11 9.8
2015-Jul-12 19:25N 30°21' W 012°54'9 9.8
2015-Jul-12 18:33N 30°27' W 012°47'1010.0
2015-Jul-12 17:33N 30°35' W 012°39'10 9.7
2015-Jul-12 16:33N 30°41' W 012°31'10 9.6
2015-Jul-12 15:33N 30°48' W 012°23'10 9.6
2015-Jul-12 14:33N 30°55' W 012°15'20 8.3
2015-Jul-12 12:10N 31°09' W 011°59'6 9.7
2015-Jul-12 11:31N 31°14' W 011°54'87 9.7
2015-Jul-12 02:32N 32°16' W 010°43'9 9.5
2015-Jul-12 01:34N 32°23' W 010°35'20 9.9
2015-Jul-11 23:33N 32°38' W 010°19'10 9.8
2015-Jul-11 22:33N 32°44' W 010°11'12 9.8
2015-Jul-11 21:21N 32°53' W 010°01'28 9.9
2015-Jul-11 18:33N 33°12' W 009°37'1010.3
2015-Jul-11 17:33N 33°20' W 009°29'1010.3
2015-Jul-11 16:32N 33°28' W 009°21'11 9.9
2015-Jul-11 15:23N 33°36' W 009°11'14010.8
2015-Jul-11 02:29N 35°16' W 007°12'910.1
2015-Jul-11 01:33N 35°22' W 007°04'1210.3
2015-Jul-11 00:22N 35°31' W 006°53'1110.6
2015-Jul-10 23:17N 35°39' W 006°43'810.7
2015-Jul-10 22:33N 35°44' W 006°36'1110.8
2015-Jul-10 21:33N 35°52' W 006°27'10 9.7
2015-Jul-10 20:33N 35°57' W 006°16'1110.6
2015-Jul-10 19:29N 35°57' W 006°02'1010.6
2015-Jul-10 18:33N 35°57' W 005°50'1010.4
2015-Jul-10 17:33N 35°58' W 005°37'8 8.2
2015-Jul-10 16:33N 36°00' W 005°28'7 7.5
2015-Jul-10 15:33N 36°07' W 005°24'3 3.3
2015-Jul-10 14:33N 36°10' W 005°23'0 0.0
2015-Jul-10 13:33N 36°10' W 005°24'0 0.1
2015-Jul-10 12:33N 36°10' W 005°24'0 0.1
2015-Jul-10 11:33N 36°10' W 005°24'0 0.0
2015-Jul-10 10:31N 36°10' W 005°24'0 0.0
2015-Jul-10 09:24N 36°10' W 005°24'24 2.6
2015-Jul-10 00:12N 35°55' W 005°47'710.7
2015-Jul-09 23:33N 35°54' W 005°55'1111.2
2015-Jul-09 22:33N 35°54' W 006°09'1110.5
2015-Jul-09 21:32N 35°54' W 006°22'2010.0
2015-Jul-09 19:31N 35°54' W 006°47'1010.0
2015-Jul-09 18:33N 35°54' W 006°59'2010.1
2015-Jul-09 16:34N 35°55' W 007°24'7 6.8
2015-Jul-09 15:33N 35°54' W 007°32'2 2.4
2015-Jul-09 14:33N 35°56' W 007°34'1010.0
2015-Jul-09 13:31N 35°56' W 007°47'10 9.8
2015-Jul-09 12:30N 35°56' W 007°59'1010.0
2015-Jul-09 11:27N 35°57' W 008°12'1010.0
2015-Jul-09 10:26N 35°57' W 008°25'8 9.1
2015-Jul-09 09:31N 35°58' W 008°35'4 4.6
2015-Jul-09 08:34N 35°58' W 008°40'10 9.8
2015-Jul-09 07:34N 35°58' W 008°52'8 8.1
2015-Jul-09 06:34N 35°56' W 008°43'9 9.1
2015-Jul-09 05:34N 35°56' W 008°32'9 9.2
2015-Jul-09 04:34N 35°57' W 008°20'9 9.4
2015-Jul-09 03:34N 35°56' W 008°09'9 9.4
2015-Jul-09 02:34N 35°56' W 007°57'9 9.4
2015-Jul-09 01:34N 35°56' W 007°45'9 9.5
2015-Jul-09 00:34N 35°56' W 007°34'10 9.6
2015-Jul-08 23:32N 35°55' W 007°22'5 5.0
2015-Jul-08 22:33N 35°53' W 007°27'1010.0
2015-Jul-08 21:33N 35°53' W 007°39'10 9.8
2015-Jul-08 20:30N 35°54' W 007°52'9 9.9
2015-Jul-08 19:33N 35°54' W 008°04'10 9.8
2015-Jul-08 18:31N 35°55' W 008°16'1010.1
2015-Jul-08 17:29N 35°57' W 008°29'5 5.7
2015-Jul-08 16:33N 35°58' W 008°35'5 4.6
2015-Jul-08 15:34N 35°58' W 008°41'5 4.7
2015-Jul-08 14:34N 35°58' W 008°47'5 4.7
2015-Jul-08 13:34N 35°58' W 008°52'5 4.6
2015-Jul-08 12:34N 35°58' W 008°58'5 4.6
2015-Jul-08 11:34N 35°57' W 009°04'7 7.0
2015-Jul-08 10:34N 35°58' W 009°12'7 6.8
2015-Jul-08 09:33N 35°58' W 009°21'1211.6
2015-Jul-08 08:33N 35°59' W 009°35'1615.8
2015-Jul-08 07:33N 35°59' W 009°55'2511.3
2015-Jul-08 05:21N 36°21' W 010°10'810.1
2015-Jul-08 04:33N 36°28' W 010°14'10 9.8
2015-Jul-08 03:29N 36°38' W 010°19'910.1
2015-Jul-08 02:33N 36°47' W 010°23'1010.2
2015-Jul-08 01:34N 36°56' W 010°28'1110.5
2015-Jul-08 00:32N 37°06' W 010°33'1010.3
2015-Jul-07 23:34N 37°15' W 010°38'1010.1
2015-Jul-07 22:33N 37°25' W 010°42'1010.3
2015-Jul-07 21:33N 37°34' W 010°47'1110.4
2015-Jul-07 20:32N 37°44' W 010°52'1110.5
2015-Jul-07 19:31N 37°54' W 010°57'1010.6
2015-Jul-07 18:34N 38°04' W 010°60'1110.7
2015-Jul-07 17:33N 38°15' W 010°60'1110.8
2015-Jul-07 16:33N 38°26' W 011°00'1111.0
2015-Jul-07 15:34N 38°37' W 011°00'1510.7
2015-Jul-07 14:09N 38°52' W 010°60'710.7
2015-Jul-07 13:28N 38°59' W 010°60'1010.8
2015-Jul-07 12:33N 39°09' W 010°60'69 9.6
2015-Jul-07 05:20N 40°07' W 010°12'2810.1
2015-Jul-07 02:34N 40°35' W 010°12'2210.5
2015-Jul-07 00:28N 40°57' W 010°12'4510.5
2015-Jul-06 20:12N 41°42' W 010°12'710.1
2015-Jul-06 19:34N 41°48' W 010°12'1410.3
2015-Jul-06 18:12N 42°02' W 010°12'710.1
2015-Jul-06 17:33N 42°09' W 010°12'91 9.6
2015-Jul-06 08:09N 43°38' W 009°52'610.3
2015-Jul-06 07:33N 43°40' W 009°44'18410.1
2015-Jul-05 13:17N 43°51' W 005°29'710.1
2015-Jul-05 12:33N 43°50' W 005°19'1010.0
2015-Jul-05 11:33N 43°49' W 005°05'10 9.5
2015-Jul-05 10:33N 43°48' W 004°52'59 1.8
2015-Jul-04 01:29N 43°38' W 003°31'1616.6
2015-Jul-04 00:33N 43°44' W 003°51'1716.4
2015-Jul-03 23:33N 43°46' W 004°14'  
Track history (hours):
 
Tides and Currents Weather Stations Pressure Air Temp Water Temp Dewpoint Dewpoint Depression Visibility Wind Speed Wind Dir Waves Ship Positions

LNG Imo

Last reported at 2015-Jul-13 22:13 UTC. Time now 2015-Jul-31 07:24 UTC.
Position N 26°56' W 015°43'.
Warning: this ship's position is 17 days out of date.

; draft 10 m.

Type: Ship (hazmat cat D). MMSI: 310565000.

Date/timePositionNaut miles runAvg speedWind from/ knotsBaromVisibWave heightAir tempDewpointWater temp
2015-Jul-13 22:13N 26°56' W 015°43'811.5
2015-Jul-13 21:33N 27°03' W 015°40'2311.5
2015-Jul-13 19:33N 27°24' W 015°28'1511.2
2015-Jul-13 18:13N 27°37' W 015°21'711.4
2015-Jul-13 17:33N 27°44' W 015°17'1110.6
2015-Jul-13 16:33N 27°54' W 015°13'10 9.7
2015-Jul-13 15:33N 28°03' W 015°17'6 5.7
2015-Jul-13 14:33N 28°07' W 015°21'6 5.7
2015-Jul-13 13:33N 28°11' W 015°17'7 7.5
2015-Jul-13 12:33N 28°17' W 015°11'10 9.8
2015-Jul-13 11:33N 28°24' W 015°04'7010.0
2015-Jul-13 04:33N 29°15' W 014°08'1010.2
2015-Jul-13 03:33N 29°22' W 014°00'3210.3
2015-Jul-13 00:24N 29°45' W 013°34'910.1
2015-Jul-12 23:28N 29°52' W 013°26'910.0
2015-Jul-12 22:32N 29°59' W 013°18'1110.1
2015-Jul-12 21:29N 30°06' W 013°10'910.0
2015-Jul-12 20:33N 30°13' W 013°02'11 9.8
2015-Jul-12 19:25N 30°21' W 012°54'9 9.8
2015-Jul-12 18:33N 30°27' W 012°47'1010.0
2015-Jul-12 17:33N 30°35' W 012°39'10 9.7
2015-Jul-12 16:33N 30°41' W 012°31'10 9.6
2015-Jul-12 15:33N 30°48' W 012°23'10 9.6
2015-Jul-12 14:33N 30°55' W 012°15'20 8.3
2015-Jul-12 12:10N 31°09' W 011°59'6 9.7
2015-Jul-12 11:31N 31°14' W 011°54'87 9.7
2015-Jul-12 02:32N 32°16' W 010°43'9 9.5
2015-Jul-12 01:34N 32°23' W 010°35'20 9.9
2015-Jul-11 23:33N 32°38' W 010°19'10 9.8
2015-Jul-11 22:33N 32°44' W 010°11'12 9.8
2015-Jul-11 21:21N 32°53' W 010°01'28 9.9
2015-Jul-11 18:33N 33°12' W 009°37'1010.3
2015-Jul-11 17:33N 33°20' W 009°29'1010.3
2015-Jul-11 16:32N 33°28' W 009°21'11 9.9
2015-Jul-11 15:23N 33°36' W 009°11'14010.8
2015-Jul-11 02:29N 35°16' W 007°12'910.1
2015-Jul-11 01:33N 35°22' W 007°04'1210.3
2015-Jul-11 00:22N 35°31' W 006°53'1110.6
2015-Jul-10 23:17N 35°39' W 006°43'810.7
2015-Jul-10 22:33N 35°44' W 006°36'1110.8
2015-Jul-10 21:33N 35°52' W 006°27'10 9.7
2015-Jul-10 20:33N 35°57' W 006°16'1110.6
2015-Jul-10 19:29N 35°57' W 006°02'1010.6
2015-Jul-10 18:33N 35°57' W 005°50'1010.4
2015-Jul-10 17:33N 35°58' W 005°37'8 8.2
2015-Jul-10 16:33N 36°00' W 005°28'7 7.5
2015-Jul-10 15:33N 36°07' W 005°24'3 3.3
2015-Jul-10 14:33N 36°10' W 005°23'0 0.0
2015-Jul-10 13:33N 36°10' W 005°24'0 0.1
2015-Jul-10 12:33N 36°10' W 005°24'0 0.1
2015-Jul-10 11:33N 36°10' W 005°24'0 0.0
2015-Jul-10 10:31N 36°10' W 005°24'0 0.0
2015-Jul-10 09:24N 36°10' W 005°24'24 2.6
2015-Jul-10 00:12N 35°55' W 005°47'710.7
2015-Jul-09 23:33N 35°54' W 005°55'1111.2
2015-Jul-09 22:33N 35°54' W 006°09'1110.5
2015-Jul-09 21:32N 35°54' W 006°22'2010.0
2015-Jul-09 19:31N 35°54' W 006°47'1010.0
2015-Jul-09 18:33N 35°54' W 006°59'2010.1
2015-Jul-09 16:34N 35°55' W 007°24'7 6.8
2015-Jul-09 15:33N 35°54' W 007°32'2 2.4
2015-Jul-09 14:33N 35°56' W 007°34'1010.0
2015-Jul-09 13:31N 35°56' W 007°47'10 9.8
2015-Jul-09 12:30N 35°56' W 007°59'1010.0
2015-Jul-09 11:27N 35°57' W 008°12'1010.0
2015-Jul-09 10:26N 35°57' W 008°25'8 9.1
2015-Jul-09 09:31N 35°58' W 008°35'4 4.6
2015-Jul-09 08:34N 35°58' W 008°40'10 9.8
2015-Jul-09 07:34N 35°58' W 008°52'8 8.1
2015-Jul-09 06:34N 35°56' W 008°43'9 9.1
2015-Jul-09 05:34N 35°56' W 008°32'9 9.2
2015-Jul-09 04:34N 35°57' W 008°20'9 9.4
2015-Jul-09 03:34N 35°56' W 008°09'9 9.4
2015-Jul-09 02:34N 35°56' W 007°57'9 9.4
2015-Jul-09 01:34N 35°56' W 007°45'9 9.5
2015-Jul-09 00:34N 35°56' W 007°34'10 9.6
2015-Jul-08 23:32N 35°55' W 007°22'5 5.0
2015-Jul-08 22:33N 35°53' W 007°27'1010.0
2015-Jul-08 21:33N 35°53' W 007°39'10 9.8
2015-Jul-08 20:30N 35°54' W 007°52'9 9.9
2015-Jul-08 19:33N 35°54' W 008°04'10 9.8
2015-Jul-08 18:31N 35°55' W 008°16'1010.1
2015-Jul-08 17:29N 35°57' W 008°29'5 5.7
2015-Jul-08 16:33N 35°58' W 008°35'5 4.6
2015-Jul-08 15:34N 35°58' W 008°41'5 4.7
2015-Jul-08 14:34N 35°58' W 008°47'5 4.7
2015-Jul-08 13:34N 35°58' W 008°52'5 4.6
2015-Jul-08 12:34N 35°58' W 008°58'5 4.6
2015-Jul-08 11:34N 35°57' W 009°04'7 7.0
2015-Jul-08 10:34N 35°58' W 009°12'7 6.8
2015-Jul-08 09:33N 35°58' W 009°21'1211.6
2015-Jul-08 08:33N 35°59' W 009°35'1615.8
2015-Jul-08 07:33N 35°59' W 009°55'2511.3
2015-Jul-08 05:21N 36°21' W 010°10'810.1
2015-Jul-08 04:33N 36°28' W 010°14'10 9.8
2015-Jul-08 03:29N 36°38' W 010°19'910.1
2015-Jul-08 02:33N 36°47' W 010°23'1010.2
2015-Jul-08 01:34N 36°56' W 010°28'1110.5
2015-Jul-08 00:32N 37°06' W 010°33'1010.3
2015-Jul-07 23:34N 37°15' W 010°38'1010.1
2015-Jul-07 22:33N 37°25' W 010°42'1010.3
2015-Jul-07 21:33N 37°34' W 010°47'1110.4
2015-Jul-07 20:32N 37°44' W 010°52'1110.5
2015-Jul-07 19:31N 37°54' W 010°57'1010.6
2015-Jul-07 18:34N 38°04' W 010°60'1110.7
2015-Jul-07 17:33N 38°15' W 010°60'1110.8
2015-Jul-07 16:33N 38°26' W 011°00'1111.0
2015-Jul-07 15:34N 38°37' W 011°00'1510.7
2015-Jul-07 14:09N 38°52' W 010°60'710.7
2015-Jul-07 13:28N 38°59' W 010°60'1010.8
2015-Jul-07 12:33N 39°09' W 010°60'69 9.6
2015-Jul-07 05:20N 40°07' W 010°12'2810.1
2015-Jul-07 02:34N 40°35' W 010°12'2210.5
2015-Jul-07 00:28N 40°57' W 010°12'4510.5
2015-Jul-06 20:12N 41°42' W 010°12'710.1
2015-Jul-06 19:34N 41°48' W 010°12'1410.3
2015-Jul-06 18:12N 42°02' W 010°12'710.1
2015-Jul-06 17:33N 42°09' W 010°12'91 9.6
2015-Jul-06 08:09N 43°38' W 009°52'610.3
2015-Jul-06 07:33N 43°40' W 009°44'18410.1
2015-Jul-05 13:17N 43°51' W 005°29'710.1
2015-Jul-05 12:33N 43°50' W 005°19'1010.0
2015-Jul-05 11:33N 43°49' W 005°05'10 9.5
2015-Jul-05 10:33N 43°48' W 004°52'59 1.8
2015-Jul-04 01:29N 43°38' W 003°31'1616.6
2015-Jul-04 00:33N 43°44' W 003°51'1716.4
2015-Jul-03 23:33N 43°46' W 004°14'  

Dump ship's entire track history